»·PEaware :: N49LP KBLH-KLSV

N49LP :: KBLH-KLSV

FLIGHT INFORMATION

Flight Status: Arrived
Operator: Privately registered:
United States
More flights under this callsign
Pilot: Les P. (123)
Aircraft: BEECH AIRCRAFT BONANZA
(BE35)
More flights by this aircraft type
Origin: KBLH Blythe
United States
Destination: KLSV Nellis AFB
United States
More flights between these airports :: More routes between these airports
Route: PKE V135 EED V237 BLD
File this flight plan on PilotEdge
Remarks:
Altitude:
(Current/Filed)
8,500ft
Speed:
(Current/Filed)
165kts
Departed: 02-May-19 03:05 PM
Arrived: 02-May-19 04:16 PM
Distance/Time
Traveled:
158nm/1:11
Distance/Time
To Go:
Arrived

Flight Plot

Page will automatically refresh every two minutes.

Flight plan parsing failed; only flown route is shown


Map Options




Map Legend


Flown Route
Filed Route
Departure Airport
Arrival Airport
Navaid (VOR, NDB)
Fix

Horizontal Profiles

Position Reports

Time Latitude Longitude Heading Altitude Ground
Speed
02-May-19 14:29 33.614320 -114.713731 175 400ft 0kts
02-May-19 14:30 33.614320 -114.713731 175 400ft 0kts
02-May-19 14:31 33.614320 -114.713731 175 400ft 0kts
02-May-19 14:32 33.614320 -114.713731 175 400ft 0kts
02-May-19 14:33 33.614320 -114.713731 175 400ft 0kts
02-May-19 14:34 33.614320 -114.713731 175 400ft 0kts
02-May-19 14:35 33.614320 -114.713731 175 400ft 0kts
02-May-19 14:36 33.614320 -114.713731 175 400ft 0kts
02-May-19 14:37 33.614320 -114.713731 175 400ft 0kts
02-May-19 14:38 33.614320 -114.713731 175 400ft 0kts
02-May-19 14:39 33.614320 -114.713731 175 400ft 0kts
02-May-19 14:40 33.614320 -114.713731 175 400ft 0kts
02-May-19 14:41 33.614320 -114.713731 175 400ft 0kts
02-May-19 14:42 33.614320 -114.713731 175 400ft 0kts
02-May-19 14:43 33.614320 -114.713731 175 400ft 0kts
02-May-19 14:44 33.614320 -114.713731 175 400ft 0kts
02-May-19 14:45 33.614320 -114.713731 175 400ft 0kts
02-May-19 14:46 33.614405 -114.713742 173 400ft 1kts
02-May-19 14:47 33.614516 -114.713738 183 400ft 0kts
02-May-19 14:48 33.614516 -114.713738 183 400ft 0kts
02-May-19 14:49 33.614516 -114.713738 183 400ft 0kts
02-May-19 14:50 33.614516 -114.713738 183 400ft 0kts
02-May-19 14:51 33.614516 -114.713738 183 400ft 0kts
02-May-19 14:52 33.614514 -114.713738 183 400ft 0kts
02-May-19 14:53 33.614512 -114.713738 183 400ft 0kts
02-May-19 14:54 33.614510 -114.713738 183 400ft 0kts
02-May-19 14:55 33.614508 -114.713738 183 400ft 0kts
02-May-19 14:56 33.614506 -114.713738 183 400ft 0kts
02-May-19 14:57 33.615087 -114.714639 291 400ft 13kts
02-May-19 14:58 33.618159 -114.715124 1 400ft 15kts
02-May-19 14:59 33.619239 -114.715835 273 400ft 0kts
02-May-19 15:00 33.619239 -114.715840 273 400ft 0kts
02-May-19 15:01 33.620072 -114.716797 356 400ft 17kts
02-May-19 15:02 33.626235 -114.716886 14 400ft 10kts
02-May-19 15:03 33.626075 -114.716761 179 400ft 0kts
02-May-19 15:04 33.608168 -114.717250 180 756ft 95kts
02-May-19 15:05 33.587750 -114.706936 66 1509ft 107kts
02-May-19 15:06 33.617564 -114.697610 358 2223ft 116kts
02-May-19 15:07 33.647603 -114.708054 337 3030ft 114kts
02-May-19 15:08 33.677834 -114.715738 354 3846ft 110kts
02-May-19 15:09 33.709462 -114.719555 4 4628ft 115kts
02-May-19 15:10 33.740406 -114.708106 17 5387ft 118kts
02-May-19 15:11 33.772939 -114.706286 4 6086ft 116kts
02-May-19 15:12 33.805419 -114.703567 3 6788ft 118kts
02-May-19 15:13 33.838384 -114.701203 3 7473ft 118kts
02-May-19 15:14 33.871452 -114.698819 2 8123ft 119kts
02-May-19 15:15 33.905302 -114.696372 2 8485ft 133kts
02-May-19 15:16 33.946563 -114.693317 3 8486ft 152kts
02-May-19 15:17 33.989836 -114.690165 2 8483ft 157kts
02-May-19 15:18 34.033713 -114.686983 2 8500ft 157kts
02-May-19 15:19 34.077565 -114.683805 2 8506ft 158kts
02-May-19 15:20 34.121113 -114.675970 14 8506ft 159kts
02-May-19 15:21 34.164131 -114.662645 13 8512ft 158kts
02-May-19 15:22 34.206893 -114.649361 14 8507ft 158kts
02-May-19 15:23 34.249218 -114.636176 14 8508ft 156kts
02-May-19 15:24 34.291525 -114.622982 14 8513ft 157kts
02-May-19 15:25 34.334340 -114.609609 14 8504ft 159kts
02-May-19 15:26 34.377043 -114.596260 14 8501ft 157kts
02-May-19 15:27 34.419593 -114.582949 14 8503ft 158kts
02-May-19 15:28 34.462559 -114.569487 14 8505ft 159kts
02-May-19 15:29 34.505556 -114.556003 14 8502ft 159kts
02-May-19 15:30 34.548650 -114.542475 14 8503ft 159kts
02-May-19 15:31 34.591025 -114.529164 14 8507ft 156kts
02-May-19 15:32 34.633076 -114.515940 14 8508ft 155kts
02-May-19 15:33 34.675335 -114.502632 14 8504ft 157kts
02-May-19 15:34 34.717540 -114.489325 14 8504ft 156kts
02-May-19 15:35 34.759369 -114.476129 14 8502ft 155kts
02-May-19 15:36 34.801317 -114.485401 345 8504ft 156kts
02-May-19 15:37 34.843794 -114.498405 345 8505ft 157kts
02-May-19 15:38 34.886241 -114.511622 345 8503ft 156kts
02-May-19 15:39 34.928334 -114.524796 345 8505ft 156kts
02-May-19 15:40 34.970999 -114.538156 345 8503ft 158kts
02-May-19 15:41 35.013420 -114.551460 345 8506ft 156kts
02-May-19 15:42 35.055250 -114.564583 345 8497ft 154kts
02-May-19 15:43 35.096738 -114.577628 345 8501ft 154kts
02-May-19 15:44 35.138585 -114.590812 345 8500ft 155kts
02-May-19 15:45 35.180770 -114.604078 345 8497ft 157kts
02-May-19 15:46 35.222830 -114.617334 345 8498ft 155kts
02-May-19 15:47 35.264842 -114.630595 345 8499ft 156kts
02-May-19 15:48 35.306574 -114.643773 345 8496ft 154kts
02-May-19 15:49 35.348081 -114.656904 345 8499ft 154kts
02-May-19 15:50 35.390003 -114.670173 345 8506ft 156kts
02-May-19 15:51 35.432119 -114.683518 345 8511ft 156kts
02-May-19 15:52 35.474307 -114.696900 345 8522ft 157kts
02-May-19 15:53 35.516914 -114.710431 345 8526ft 157kts
02-May-19 15:54 35.559609 -114.724006 345 8537ft 158kts
02-May-19 15:55 35.601651 -114.737391 345 8545ft 155kts
02-May-19 15:56 35.643417 -114.750707 345 8507ft 157kts
02-May-19 15:57 35.686265 -114.764368 345 8489ft 158kts
02-May-19 15:58 35.728640 -114.777899 345 8495ft 156kts
02-May-19 15:59 35.771019 -114.791453 345 8503ft 158kts
02-May-19 16:00 35.813588 -114.805086 345 8506ft 157kts
02-May-19 16:01 35.856255 -114.818758 345 8511ft 158kts
02-May-19 16:02 35.899164 -114.832513 345 8501ft 159kts
02-May-19 16:03 35.941709 -114.846185 345 8499ft 158kts
02-May-19 16:04 35.984568 -114.859965 345 8502ft 158kts
02-May-19 16:05 36.023103 -114.883046 330 8506ft 153kts
02-May-19 16:06 36.060717 -114.909566 330 8511ft 156kts
02-May-19 16:07 36.099081 -114.937102 329 8088ft 166kts
02-May-19 16:08 36.140047 -114.965870 330 7193ft 173kts
02-May-19 16:09 36.181888 -114.994781 336 6017ft 170kts
02-May-19 16:10 36.220543 -114.974467 45 4825ft 165kts
02-May-19 16:11 36.249915 -114.934239 46 4016ft 153kts
02-May-19 16:12 36.283450 -114.947225 307 3396ft 136kts
02-May-19 16:13 36.279715 -114.989225 224 2739ft 123kts
02-May-19 16:14 36.255300 -115.015566 220 2176ft 112kts
02-May-19 16:15 36.238531 -115.034017 221 1873ft 40kts
02-May-19 16:16 36.234913 -115.039381 307 1873ft 8kts
02-May-19 16:17 36.236969 -115.040327 312 1873ft 3kts
02-May-19 16:18 36.236988 -115.040354 310 1873ft 0kts
02-May-19 16:19 36.236989 -115.040354 310 1873ft 0kts
02-May-19 16:20 36.236989 -115.040354 310 1873ft 0kts

Navigation Log

Ident Type
Flight plan parsing failed, navigation log unavailable